sensor_id;sensor_type;location;lat;lon;timestamp;pressure;altitude;pressure_sealevel;temperature;humidity
13952;BME280;39535;52.192;9.886;2024-01-16T00:00:28;99431.44;;;1.43;90.73
13952;BME280;39535;52.192;9.886;2024-01-16T00:02:54;99432.34;;;1.55;90.50
13952;BME280;39535;52.192;9.886;2024-01-16T00:05:20;99429.75;;;1.62;90.75
13952;BME280;39535;52.192;9.886;2024-01-16T00:07:48;99438.31;;;1.54;90.42
13952;BME280;39535;52.192;9.886;2024-01-16T00:10:14;99441.75;;;1.56;90.17
13952;BME280;39535;52.192;9.886;2024-01-16T00:12:41;99455.47;;;1.49;90.26
13952;BME280;39535;52.192;9.886;2024-01-16T00:15:08;99448.63;;;1.57;90.52
13952;BME280;39535;52.192;9.886;2024-01-16T00:17:35;99449.50;;;1.61;90.23
13952;BME280;39535;52.192;9.886;2024-01-16T00:20:00;99454.59;;;1.35;89.79
13952;BME280;39535;52.192;9.886;2024-01-16T00:22:27;99440.94;;;1.67;90.40
13952;BME280;39535;52.192;9.886;2024-01-16T00:24:54;99471.78;;;1.67;89.45
13952;BME280;39535;52.192;9.886;2024-01-16T00:27:21;99508.56;;;1.33;89.04
13952;BME280;39535;52.192;9.886;2024-01-16T00:29:47;99505.97;;;1.21;89.38
13952;BME280;39535;52.192;9.886;2024-01-16T00:32:14;99496.59;;;1.37;88.51
13952;BME280;39535;52.192;9.886;2024-01-16T00:34:42;99508.59;;;1.35;88.65
13952;BME280;39535;52.192;9.886;2024-01-16T00:37:08;99526.56;;;1.36;88.15
13952;BME280;39535;52.192;9.886;2024-01-16T00:39:35;99523.19;;;1.45;88.77
13952;BME280;39535;52.192;9.886;2024-01-16T00:42:03;99523.19;;;1.45;88.46
13952;BME280;39535;52.192;9.886;2024-01-16T00:44:31;99530.91;;;1.47;88.31
13952;BME280;39535;52.192;9.886;2024-01-16T00:46:57;99538.50;;;1.19;89.81
13952;BME280;39535;52.192;9.886;2024-01-16T00:49:26;99516.28;;;1.32;89.81
13952;BME280;39535;52.192;9.886;2024-01-16T00:51:52;99529.97;;;1.32;88.68
13952;BME280;39535;52.192;9.886;2024-01-16T00:54:19;99546.31;;;1.44;88.42
13952;BME280;39535;52.192;9.886;2024-01-16T00:56:46;99563.38;;;1.31;88.13
13952;BME280;39535;52.192;9.886;2024-01-16T00:59:13;99568.59;;;1.43;86.84
13952;BME280;39535;52.192;9.886;2024-01-16T01:01:40;99590.91;;;1.50;86.51
13952;BME280;39535;52.192;9.886;2024-01-16T01:04:06;99608.00;;;1.42;85.50
13952;BME280;39535;52.192;9.886;2024-01-16T01:06:34;99615.69;;;1.34;86.11
13952;BME280;39535;52.192;9.886;2024-01-16T01:09:01;99632.00;;;1.39;85.86
13952;BME280;39535;52.192;9.886;2024-01-16T01:11:28;99644.06;;;1.51;85.24
13952;BME280;39535;52.192;9.886;2024-01-16T01:13:54;99675.66;;;1.27;84.31
13952;BME280;39535;52.192;9.886;2024-01-16T01:16:22;99672.31;;;1.48;84.86
13952;BME280;39535;52.192;9.886;2024-01-16T01:18:48;99694.63;;;1.52;84.69
13952;BME280;39535;52.192;9.886;2024-01-16T01:21:14;99687.78;;;1.47;84.92
13952;BME280;39535;52.192;9.886;2024-01-16T01:23:41;99688.53;;;1.33;85.46
13952;BME280;39535;52.192;9.886;2024-01-16T01:26:08;99683.47;;;1.50;85.24
13952;BME280;39535;52.192;9.886;2024-01-16T01:28:34;99689.50;;;1.54;84.84
13952;BME280;39535;52.192;9.886;2024-01-16T01:31:01;99697.94;;;1.31;85.88
13952;BME280;39535;52.192;9.886;2024-01-16T01:33:29;99680.75;;;1.23;86.30
13952;BME280;39535;52.192;9.886;2024-01-16T01:35:55;99666.16;;;1.17;87.23
13952;BME280;39535;52.192;9.886;2024-01-16T01:38:22;99639.69;;;1.38;87.67
13952;BME280;39535;52.192;9.886;2024-01-16T01:40:48;99646.59;;;1.44;87.36
13952;BME280;39535;52.192;9.886;2024-01-16T01:43:19;99637.19;;;1.49;87.36
13952;BME280;39535;52.192;9.886;2024-01-16T01:45:47;99643.13;;;1.40;86.22
13952;BME280;39535;52.192;9.886;2024-01-16T01:48:22;99639.69;;;1.33;87.87
13952;BME280;39535;52.192;9.886;2024-01-16T01:50:50;99637.91;;;1.25;87.66
13952;BME280;39535;52.192;9.886;2024-01-16T01:53:16;99629.41;;;1.36;87.51
13952;BME280;39535;52.192;9.886;2024-01-16T01:55:43;99646.59;;;1.44;86.82
13952;BME280;39535;52.192;9.886;2024-01-16T01:58:10;99638.00;;;1.40;87.75
13952;BME280;39535;52.192;9.886;2024-01-16T02:00:37;99643.91;;;1.27;87.77
13952;BME280;39535;52.192;9.886;2024-01-16T02:03:03;99616.59;;;1.41;88.33
13952;BME280;39535;52.192;9.886;2024-01-16T02:05:30;99628.56;;;1.36;87.28
13952;BME280;39535;52.192;9.886;2024-01-16T02:07:59;99636.22;;;1.25;86.92
13952;BME280;39535;52.192;9.886;2024-01-16T02:10:26;99647.41;;;1.33;87.19
13952;BME280;39535;52.192;9.886;2024-01-16T02:12:52;99641.50;;;1.56;87.60
13952;BME280;39535;52.192;9.886;2024-01-16T02:15:19;99659.56;;;1.65;86.21
13952;BME280;39535;52.192;9.886;2024-01-16T02:17:47;99695.38;;;1.31;85.57
13952;BME280;39535;52.192;9.886;2024-01-16T02:20:13;99692.88;;;1.39;85.67
13952;BME280;39535;52.192;9.886;2024-01-16T02:22:40;99722.78;;;1.32;84.74
13952;BME280;39535;52.192;9.886;2024-01-16T02:25:11;99720.16;;;1.25;84.94
13952;BME280;39535;52.192;9.886;2024-01-16T02:27:37;99724.31;;;1.04;85.88
13952;BME280;39535;52.192;9.886;2024-01-16T02:30:05;99708.13;;;1.16;85.45
13952;BME280;39535;52.192;9.886;2024-01-16T02:32:32;99710.81;;;1.31;85.26
13952;BME280;39535;52.192;9.886;2024-01-16T02:34:58;99725.28;;;1.20;85.02
13952;BME280;39535;52.192;9.886;2024-01-16T02:37:25;99729.63;;;1.30;85.39
13952;BME280;39535;52.192;9.886;2024-01-16T02:39:51;99740.75;;;1.23;84.77
13952;BME280;39535;52.192;9.886;2024-01-16T02:42:19;99752.78;;;1.32;85.27
13952;BME280;39535;52.192;9.886;2024-01-16T02:44:45;99752.66;;;1.12;85.03
13952;BME280;39535;52.192;9.886;2024-01-16T02:47:11;99755.22;;;1.12;84.51
13952;BME280;39535;52.192;9.886;2024-01-16T02:49:38;99764.69;;;1.21;83.89
13952;BME280;39535;52.192;9.886;2024-01-16T02:52:05;99795.56;;;1.22;83.93
13952;BME280;39535;52.192;9.886;2024-01-16T02:54:31;99794.81;;;1.38;83.22
13952;BME280;39535;52.192;9.886;2024-01-16T02:56:57;99819.31;;;0.96;84.17
13952;BME280;39535;52.192;9.886;2024-01-16T02:59:25;99804.03;;;1.12;83.81
13952;BME280;39535;52.192;9.886;2024-01-16T03:01:54;99814.28;;;1.09;84.33
13952;BME280;39535;52.192;9.886;2024-01-16T03:04:20;99808.50;;;1.31;83.90
13952;BME280;39535;52.192;9.886;2024-01-16T03:06:46;99833.97;;;1.04;83.68
13952;BME280;39535;52.192;9.886;2024-01-16T03:09:13;99833.03;;;0.95;84.02
13952;BME280;39535;52.192;9.886;2024-01-16T03:11:39;99818.34;;;0.84;84.17
13952;BME280;39535;52.192;9.886;2024-01-16T03:14:05;99798.91;;;1.12;84.42
13952;BME280;39535;52.192;9.886;2024-01-16T03:16:33;99816.00;;;1.08;83.58
13952;BME280;39535;52.192;9.886;2024-01-16T03:18:59;99825.28;;;0.94;83.85
13952;BME280;39535;52.192;9.886;2024-01-16T03:21:26;99830.56;;;1.08;83.39
13952;BME280;39535;52.192;9.886;2024-01-16T03:23:52;99846.59;;;0.84;83.95
13952;BME280;39535;52.192;9.886;2024-01-16T03:26:19;99837.19;;;0.87;83.89
13952;BME280;39535;52.192;9.886;2024-01-16T03:28:46;99822.69;;;0.91;83.76
13952;BME280;39535;52.192;9.886;2024-01-16T03:31:12;99820.13;;;0.89;84.61
13952;BME280;39535;52.192;9.886;2024-01-16T03:33:41;99820.09;;;0.88;85.07
13952;BME280;39535;52.192;9.886;2024-01-16T03:36:08;99820.22;;;1.00;84.57
13952;BME280;39535;52.192;9.886;2024-01-16T03:38:35;99819.19;;;0.84;84.00
13952;BME280;39535;52.192;9.886;2024-01-16T03:41:03;99809.94;;;1.02;84.37
13952;BME280;39535;52.192;9.886;2024-01-16T03:43:31;99826.94;;;0.86;84.00
13952;BME280;39535;52.192;9.886;2024-01-16T03:45:58;99842.47;;;0.98;83.81
13952;BME280;39535;52.192;9.886;2024-01-16T03:48:24;99838.47;;;1.31;83.21
13952;BME280;39535;52.192;9.886;2024-01-16T03:50:52;99860.91;;;1.47;82.15
13952;BME280;39535;52.192;9.886;2024-01-16T03:53:19;99865.81;;;1.19;84.04
13952;BME280;39535;52.192;9.886;2024-01-16T03:55:46;99856.34;;;1.18;84.21
13952;BME280;39535;52.192;9.886;2024-01-16T03:58:13;99853.41;;;0.83;85.77
13952;BME280;39535;52.192;9.886;2024-01-16T04:00:39;99831.41;;;1.05;85.37
13952;BME280;39535;52.192;9.886;2024-01-16T04:03:06;99823.78;;;1.16;84.37
13952;BME280;39535;52.192;9.886;2024-01-16T04:05:33;99855.22;;;0.90;84.50
13952;BME280;39535;52.192;9.886;2024-01-16T04:08:00;99827.91;;;0.98;85.13
13952;BME280;39535;52.192;9.886;2024-01-16T04:10:27;99817.69;;;1.06;85.51
13952;BME280;39535;52.192;9.886;2024-01-16T04:12:53;99817.72;;;1.11;85.54
13952;BME280;39535;52.192;9.886;2024-01-16T04:15:20;99815.19;;;1.14;85.24
13952;BME280;39535;52.192;9.886;2024-01-16T04:17:46;99821.81;;;0.90;85.33
13952;BME280;39535;52.192;9.886;2024-01-16T04:20:13;99817.72;;;1.08;84.54
13952;BME280;39535;52.192;9.886;2024-01-16T04:22:39;99834.66;;;0.90;84.65
13952;BME280;39535;52.192;9.886;2024-01-16T04:25:07;99826.97;;;0.90;85.04
13952;BME280;39535;52.192;9.886;2024-01-16T04:27:34;99812.47;;;0.95;85.63
13952;BME280;39535;52.192;9.886;2024-01-16T04:30:01;99817.03;;;0.45;86.62
13952;BME280;39535;52.192;9.886;2024-01-16T04:32:27;99784.59;;;0.53;86.62
13952;BME280;39535;52.192;9.886;2024-01-16T04:34:53;99789.84;;;0.62;86.85
13952;BME280;39535;52.192;9.886;2024-01-16T04:37:19;99783.84;;;0.63;86.58
13952;BME280;39535;52.192;9.886;2024-01-16T04:39:45;99786.72;;;0.89;85.93
13952;BME280;39535;52.192;9.886;2024-01-16T04:42:13;99810.41;;;0.65;85.19
13952;BME280;39535;52.192;9.886;2024-01-16T04:44:39;99812.03;;;0.57;85.73
13952;BME280;39535;52.192;9.886;2024-01-16T04:47:06;99792.50;;;0.71;85.69
13952;BME280;39535;52.192;9.886;2024-01-16T04:49:32;99791.56;;;0.62;86.31
13952;BME280;39535;52.192;9.886;2024-01-16T04:51:58;99791.56;;;0.62;86.78
13952;BME280;39535;52.192;9.886;2024-01-16T04:54:25;99799.84;;;0.36;86.20
13952;BME280;39535;52.192;9.886;2024-01-16T04:56:51;99788.06;;;0.55;86.55
13952;BME280;39535;52.192;9.886;2024-01-16T04:59:19;99784.66;;;0.59;86.43
13952;BME280;39535;52.192;9.886;2024-01-16T05:01:45;99782.34;;;0.81;85.63
13952;BME280;39535;52.192;9.886;2024-01-16T05:04:12;99814.53;;;0.48;85.46
13952;BME280;39535;52.192;9.886;2024-01-16T05:06:38;99820.75;;;0.70;85.55
13952;BME280;39535;52.192;9.886;2024-01-16T05:09:04;99814.84;;;0.75;84.32
13952;BME280;39535;52.192;9.886;2024-01-16T05:11:31;99831.28;;;0.91;84.63
13952;BME280;39535;52.192;9.886;2024-01-16T05:13:58;99839.13;;;1.08;84.16
13952;BME280;39535;52.192;9.886;2024-01-16T05:16:25;99858.59;;;0.85;84.27
13952;BME280;39535;52.192;9.886;2024-01-16T05:18:52;99862.13;;;0.94;84.08
13952;BME280;39535;52.192;9.886;2024-01-16T05:21:19;99871.28;;;0.71;84.10
13952;BME280;39535;52.192;9.886;2024-01-16T05:23:45;99869.50;;;0.67;84.07
13952;BME280;39535;52.192;9.886;2024-01-16T05:26:11;99872.09;;;0.67;84.56
13952;BME280;39535;52.192;9.886;2024-01-16T05:28:38;99866.22;;;0.75;84.53
13952;BME280;39535;52.192;9.886;2024-01-16T05:31:05;99862.13;;;0.94;83.82
13952;BME280;39535;52.192;9.886;2024-01-16T05:33:33;99877.94;;;0.55;84.03
13952;BME280;39535;52.192;9.886;2024-01-16T05:36:00;99862.13;;;0.94;85.23
13952;BME280;39535;52.192;9.886;2024-01-16T05:38:27;99854.31;;;0.84;84.66
13952;BME280;39535;52.192;9.886;2024-01-16T05:40:53;99849.78;;;0.63;85.23
13952;BME280;39535;52.192;9.886;2024-01-16T05:43:20;99847.06;;;0.50;85.88
13952;BME280;39535;52.192;9.886;2024-01-16T05:45:46;99825.00;;;0.69;86.09
13952;BME280;39535;52.192;9.886;2024-01-16T05:48:13;99826.69;;;0.67;86.68
13952;BME280;39535;52.192;9.886;2024-01-16T05:50:40;99804.44;;;0.65;87.03
13952;BME280;39535;52.192;9.886;2024-01-16T05:53:07;99797.09;;;1.02;86.35
13952;BME280;39535;52.192;9.886;2024-01-16T05:55:34;99816.78;;;1.01;85.22
13952;BME280;39535;52.192;9.886;2024-01-16T05:58:02;99832.19;;;0.98;85.20
13952;BME280;39535;52.192;9.886;2024-01-16T06:00:28;99843.56;;;1.23;84.69
13952;BME280;39535;52.192;9.886;2024-01-16T06:02:55;99880.00;;;0.85;83.65
13952;BME280;39535;52.192;9.886;2024-01-16T06:05:21;99861.41;;;1.11;84.33
13952;BME280;39535;52.192;9.886;2024-01-16T06:07:49;99863.25;;;1.19;84.07
13952;BME280;39535;52.192;9.886;2024-01-16T06:10:15;99875.22;;;1.17;83.89
13952;BME280;39535;52.192;9.886;2024-01-16T06:12:42;99878.75;;;1.30;83.14
13952;BME280;39535;52.192;9.886;2024-01-16T06:15:09;99897.59;;;1.28;82.46
13952;BME280;39535;52.192;9.886;2024-01-16T06:17:36;99903.34;;;1.07;83.46
13952;BME280;39535;52.192;9.886;2024-01-16T06:20:03;99890.34;;;0.90;84.25
13952;BME280;39535;52.192;9.886;2024-01-16T06:22:31;99888.50;;;0.79;84.72
13952;BME280;39535;52.192;9.886;2024-01-16T06:24:59;99864.44;;;0.70;85.58
13952;BME280;39535;52.192;9.886;2024-01-16T06:27:27;99852.56;;;0.83;84.51
13952;BME280;39535;52.192;9.886;2024-01-16T06:29:53;99842.13;;;0.66;85.56
13952;BME280;39535;52.192;9.886;2024-01-16T06:32:19;99823.25;;;0.62;86.74
13952;BME280;39535;52.192;9.886;2024-01-16T06:34:46;99828.41;;;0.65;85.75
13952;BME280;39535;52.192;9.886;2024-01-16T06:37:12;99825.97;;;0.77;85.52
13952;BME280;39535;52.192;9.886;2024-01-16T06:39:38;99829.44;;;0.83;85.09
13952;BME280;39535;52.192;9.886;2024-01-16T06:42:06;99826.88;;;0.79;85.71
13952;BME280;39535;52.192;9.886;2024-01-16T06:44:33;99829.50;;;0.86;85.13
13952;BME280;39535;52.192;9.886;2024-01-16T06:46:59;99850.09;;;0.92;85.12
13952;BME280;39535;52.192;9.886;2024-01-16T06:49:26;99850.81;;;0.78;85.39
13952;BME280;39535;52.192;9.886;2024-01-16T06:51:53;99848.28;;;0.83;84.79
13952;BME280;39535;52.192;9.886;2024-01-16T06:54:19;99842.53;;;1.04;84.71
13952;BME280;39535;52.192;9.886;2024-01-16T06:56:46;99854.72;;;1.24;84.04
13952;BME280;39535;52.192;9.886;2024-01-16T06:59:15;99871.03;;;1.27;84.40
13952;BME280;39535;52.192;9.886;2024-01-16T07:01:44;99868.34;;;1.16;84.63
13952;BME280;39535;52.192;9.886;2024-01-16T07:04:11;99866.75;;;1.29;84.61
13952;BME280;39535;52.192;9.886;2024-01-16T07:06:39;99853.91;;;1.31;85.37
13952;BME280;39535;52.192;9.886;2024-01-16T07:09:05;99867.56;;;1.27;84.78
13952;BME280;39535;52.192;9.886;2024-01-16T07:11:36;99865.91;;;1.32;85.11
13952;BME280;39535;52.192;9.886;2024-01-16T07:14:02;99867.78;;;1.48;84.35
13952;BME280;39535;52.192;9.886;2024-01-16T07:16:30;99880.69;;;1.53;83.95
13952;BME280;39535;52.192;9.886;2024-01-16T07:18:57;99908.03;;;1.45;83.20
13952;BME280;39535;52.192;9.886;2024-01-16T07:21:24;99898.78;;;1.65;83.56
13952;BME280;39535;52.192;9.886;2024-01-16T07:23:50;99919.50;;;1.79;82.44
13952;BME280;39535;52.192;9.886;2024-01-16T07:26:16;99947.56;;;1.56;82.74
13952;BME280;39535;52.192;9.886;2024-01-16T07:28:43;99946.81;;;1.68;82.10
13952;BME280;39535;52.192;9.886;2024-01-16T07:31:09;99957.97;;;1.68;82.11
13952;BME280;39535;52.192;9.886;2024-01-16T07:33:38;99965.44;;;1.39;81.63
13952;BME280;39535;52.192;9.886;2024-01-16T07:36:05;99958.78;;;1.64;82.58
13952;BME280;39535;52.192;9.886;2024-01-16T07:38:31;99965.50;;;1.48;82.25
13952;BME280;39535;52.192;9.886;2024-01-16T07:40:59;99963.06;;;1.61;82.35
13952;BME280;39535;52.192;9.886;2024-01-16T07:43:25;99974.25;;;1.66;81.65
13952;BME280;39535;52.192;9.886;2024-01-16T07:45:52;99977.81;;;1.82;82.05
13952;BME280;39535;52.192;9.886;2024-01-16T07:48:18;99978.28;;;1.39;82.37
13952;BME280;39535;52.192;9.886;2024-01-16T07:50:46;99956.94;;;1.48;82.97
13952;BME280;39535;52.192;9.886;2024-01-16T07:53:12;99958.63;;;1.46;83.11
13952;BME280;39535;52.192;9.886;2024-01-16T07:55:38;99956.13;;;1.53;82.86
13952;BME280;39535;52.192;9.886;2024-01-16T07:58:05;99965.19;;;1.17;83.97
13952;BME280;39535;52.192;9.886;2024-01-16T08:00:31;99947.47;;;1.44;84.00
13952;BME280;39535;52.192;9.886;2024-01-16T08:02:58;99953.50;;;1.47;83.33
13952;BME280;39535;52.192;9.886;2024-01-16T08:05:24;99947.53;;;1.51;83.86
13952;BME280;39535;52.192;9.886;2024-01-16T08:07:54;99945.94;;;1.64;83.43
13952;BME280;39535;52.192;9.886;2024-01-16T08:10:20;99954.56;;;1.72;82.68
13952;BME280;39535;52.192;9.886;2024-01-16T08:12:46;99965.69;;;1.67;82.40
13952;BME280;39535;52.192;9.886;2024-01-16T08:15:13;99970.97;;;1.81;82.64
13952;BME280;39535;52.192;9.886;2024-01-16T08:17:40;99987.16;;;1.69;81.75
13952;BME280;39535;52.192;9.886;2024-01-16T08:20:07;99983.59;;;1.56;82.19
13952;BME280;39535;52.192;9.886;2024-01-16T08:22:35;99983.50;;;1.47;82.92
13952;BME280;39535;52.192;9.886;2024-01-16T08:25:03;99973.41;;;1.67;82.88
13952;BME280;39535;52.192;9.886;2024-01-16T08:27:30;99978.38;;;1.50;82.96
13952;BME280;39535;52.192;9.886;2024-01-16T08:29:57;99960.22;;;1.36;83.32
13952;BME280;39535;52.192;9.886;2024-01-16T08:32:24;99957.63;;;1.34;83.48
13952;BME280;39535;52.192;9.886;2024-01-16T08:34:50;99944.91;;;1.45;83.59
13952;BME280;39535;52.192;9.886;2024-01-16T08:37:17;99972.19;;;1.32;82.85
13952;BME280;39535;52.192;9.886;2024-01-16T08:39:43;99954.28;;;1.42;84.17
13952;BME280;39535;52.192;9.886;2024-01-16T08:42:11;99961.66;;;1.09;83.57
13952;BME280;39535;52.192;9.886;2024-01-16T08:44:37;99943.81;;;1.25;83.97
13952;BME280;39535;52.192;9.886;2024-01-16T08:47:04;99944.78;;;1.33;83.68
13952;BME280;39535;52.192;9.886;2024-01-16T08:49:31;99937.09;;;1.36;83.50
13952;BME280;39535;52.192;9.886;2024-01-16T08:51:57;99923.63;;;1.62;83.59
13952;BME280;39535;52.192;9.886;2024-01-16T08:54:24;99959.53;;;1.49;82.36
13952;BME280;39535;52.192;9.886;2024-01-16T08:56:51;99939.03;;;1.57;84.14
13952;BME280;39535;52.192;9.886;2024-01-16T08:59:18;99935.38;;;1.33;83.40
13952;BME280;39535;52.192;9.886;2024-01-16T09:01:45;99921.84;;;1.54;84.71
13952;BME280;39535;52.192;9.886;2024-01-16T09:04:11;99909.94;;;1.63;85.14
13952;BME280;39535;52.192;9.886;2024-01-16T09:06:37;99907.47;;;1.75;83.87
13952;BME280;39535;52.192;9.886;2024-01-16T09:09:04;99881.03;;;1.97;85.94
13952;BME280;39535;52.192;9.886;2024-01-16T09:11:30;99901.59;;;1.94;83.45
13952;BME280;39535;52.192;9.886;2024-01-16T09:13:57;99945.91;;;1.61;83.09
13952;BME280;39535;52.192;9.886;2024-01-16T09:16:24;99953.59;;;1.55;82.93
13952;BME280;39535;52.192;9.886;2024-01-16T09:18:51;99935.88;;;1.92;83.79
13952;BME280;39535;52.192;9.886;2024-01-16T09:21:17;99935.09;;;2.02;84.57
13952;BME280;39535;52.192;9.886;2024-01-16T09:23:43;99963.94;;;1.64;82.63
13952;BME280;39535;52.192;9.886;2024-01-16T09:26:10;99962.41;;;1.83;83.07
13952;BME280;39535;52.192;9.886;2024-01-16T09:28:36;99956.53;;;1.96;83.57
13952;BME280;39535;52.192;9.886;2024-01-16T09:31:05;99986.28;;;1.70;81.38
13952;BME280;39535;52.192;9.886;2024-01-16T09:33:33;99993.06;;;1.60;81.66
13952;BME280;39535;52.192;9.886;2024-01-16T09:35:59;99996.63;;;1.76;81.98
13952;BME280;39535;52.192;9.886;2024-01-16T09:38:26;100015.22;;;1.47;81.08
13952;BME280;39535;52.192;9.886;2024-01-16T09:40:52;100001.06;;;1.89;81.74
13952;BME280;39535;52.192;9.886;2024-01-16T09:43:22;100025.66;;;1.61;82.34
13952;BME280;39535;52.192;9.886;2024-01-16T09:45:51;100007.84;;;1.79;81.92
13952;BME280;39535;52.192;9.886;2024-01-16T09:48:17;100012.13;;;1.79;81.72
13952;BME280;39535;52.192;9.886;2024-01-16T09:50:46;100019.66;;;1.61;81.47
13952;BME280;39535;52.192;9.886;2024-01-16T09:53:12;100007.00;;;1.84;81.97
13952;BME280;39535;52.192;9.886;2024-01-16T09:55:39;100022.34;;;1.73;81.55
13952;BME280;39535;52.192;9.886;2024-01-16T09:58:07;100008.69;;;1.80;82.29
13952;BME280;39535;52.192;9.886;2024-01-16T10:00:38;99996.88;;;2.02;81.75
13952;BME280;39535;52.192;9.886;2024-01-16T10:03:06;100018.25;;;1.93;82.06
13952;BME280;39535;52.192;9.886;2024-01-16T10:05:32;100019.31;;;2.15;81.80
13952;BME280;39535;52.192;9.886;2024-01-16T10:08:00;100018.97;;;1.77;81.78
13952;BME280;39535;52.192;9.886;2024-01-16T10:10:26;100009.66;;;1.91;81.79
13952;BME280;39535;52.192;9.886;2024-01-16T10:12:54;100011.56;;;2.14;81.96
13952;BME280;39535;52.192;9.886;2024-01-16T10:15:22;100013.22;;;2.06;81.56
13952;BME280;39535;52.192;9.886;2024-01-16T10:17:48;100009.81;;;2.10;82.06
13952;BME280;39535;52.192;9.886;2024-01-16T10:20:14;100008.16;;;2.18;81.25
13952;BME280;39535;52.192;9.886;2024-01-16T10:22:52;100017.53;;;2.10;81.23
13952;BME280;39535;52.192;9.886;2024-01-16T10:25:20;100014.97;;;2.10;82.00
13952;BME280;39535;52.192;9.886;2024-01-16T10:27:48;100018.34;;;2.04;81.86
13952;BME280;39535;52.192;9.886;2024-01-16T10:30:14;100005.72;;;2.33;80.87
13952;BME280;39535;52.192;9.886;2024-01-16T10:32:42;100032.28;;;2.25;80.86
13952;BME280;39535;52.192;9.886;2024-01-16T10:35:10;100034.00;;;2.27;80.99
13952;BME280;39535;52.192;9.886;2024-01-16T10:37:40;100036.63;;;2.33;81.26
13952;BME280;39535;52.192;9.886;2024-01-16T10:40:08;100044.50;;;2.52;80.84
13952;BME280;39535;52.192;9.886;2024-01-16T10:42:36;100048.75;;;2.47;79.75
13952;BME280;39535;52.192;9.886;2024-01-16T10:45:03;100054.91;;;2.66;79.57
13952;BME280;39535;52.192;9.886;2024-01-16T10:47:29;100077.16;;;2.56;79.28
13952;BME280;39535;52.192;9.886;2024-01-16T10:49:59;100091.84;;;2.69;78.81
13952;BME280;39535;52.192;9.886;2024-01-16T10:52:27;100093.50;;;2.58;79.16
13952;BME280;39535;52.192;9.886;2024-01-16T10:54:57;100113.06;;;2.37;79.28
13952;BME280;39535;52.192;9.886;2024-01-16T10:57:26;100113.13;;;2.45;79.89
13952;BME280;39535;52.192;9.886;2024-01-16T11:00:01;100102.75;;;2.34;79.84
13952;BME280;39535;52.192;9.886;2024-01-16T11:02:35;100109.00;;;2.64;79.16
13952;BME280;39535;52.192;9.886;2024-01-16T11:05:04;100121.13;;;2.76;78.62
13952;BME280;39535;52.192;9.886;2024-01-16T11:07:32;100143.31;;;2.62;77.39
13952;BME280;39535;52.192;9.886;2024-01-16T11:10:01;100146.00;;;2.75;77.80
13952;BME280;39535;52.192;9.886;2024-01-16T11:12:28;100167.50;;;2.74;77.43
13952;BME280;39535;52.192;9.886;2024-01-16T11:14:59;100169.91;;;2.54;77.46
13952;BME280;39535;52.192;9.886;2024-01-16T11:17:28;100174.25;;;2.60;77.64
13952;BME280;39535;52.192;9.886;2024-01-16T11:19:55;100172.56;;;2.65;77.72
13952;BME280;39535;52.192;9.886;2024-01-16T11:22:23;100168.41;;;2.83;77.65
13952;BME280;39535;52.192;9.886;2024-01-16T11:25:08;100187.03;;;2.51;76.93
13952;BME280;39535;52.192;9.886;2024-01-16T11:27:35;100185.44;;;2.65;76.67
13952;BME280;39535;52.192;9.886;2024-01-16T11:30:03;100186.25;;;2.58;77.40
13952;BME280;39535;52.192;9.886;2024-01-16T11:32:34;100184.69;;;2.74;77.53
13952;BME280;39535;52.192;9.886;2024-01-16T11:35:01;100188.16;;;2.81;77.01
13952;BME280;39535;52.192;9.886;2024-01-16T11:37:29;100198.31;;;2.62;76.26
13952;BME280;39535;52.192;9.886;2024-01-16T11:40:23;100194.81;;;2.57;77.37
13952;BME280;39535;52.192;9.886;2024-01-16T11:42:52;100187.84;;;2.47;77.25
13952;BME280;39535;52.192;9.886;2024-01-16T11:45:48;100175.72;;;2.35;77.79
13952;BME280;39535;52.192;9.886;2024-01-16T11:48:17;100175.63;;;2.27;77.49
13952;BME280;39535;52.192;9.886;2024-01-16T11:50:43;100168.84;;;2.34;78.16
13952;BME280;39535;52.192;9.886;2024-01-16T11:53:10;100146.66;;;2.48;78.63
13952;BME280;39535;52.192;9.886;2024-01-16T11:55:48;100151.56;;;2.25;78.73
13952;BME280;39535;52.192;9.886;2024-01-16T11:58:30;100138.00;;;2.43;79.04
13952;BME280;39535;52.192;9.886;2024-01-16T12:01:05;100122.53;;;2.38;78.89
13952;BME280;39535;52.192;9.886;2024-01-16T12:03:32;100132.09;;;2.53;78.27
13952;BME280;39535;52.192;9.886;2024-01-16T12:05:59;100134.47;;;2.33;78.58
13952;BME280;39535;52.192;9.886;2024-01-16T12:08:27;100131.22;;;2.51;78.00
13952;BME280;39535;52.192;9.886;2024-01-16T12:10:53;100128.41;;;2.25;79.15
13952;BME280;39535;52.192;9.886;2024-01-16T12:13:20;100110.56;;;2.47;79.29
13952;BME280;39535;52.192;9.886;2024-01-16T12:15:46;100099.97;;;2.16;80.26
13952;BME280;39535;52.192;9.886;2024-01-16T12:18:19;100082.06;;;2.30;80.48
13952;BME280;39535;52.192;9.886;2024-01-16T12:20:45;100075.13;;;2.19;80.48
13952;BME280;39535;52.192;9.886;2024-01-16T12:23:11;100054.50;;;2.18;81.27
13952;BME280;39535;52.192;9.886;2024-01-16T12:25:39;100033.88;;;2.13;82.26
13952;BME280;39535;52.192;9.886;2024-01-16T12:28:07;100010.63;;;2.04;82.81
13952;BME280;39535;52.192;9.886;2024-01-16T12:30:36;99998.44;;;1.86;82.87
13952;BME280;39535;52.192;9.886;2024-01-16T12:33:07;99970.94;;;1.79;83.77
13952;BME280;39535;52.192;9.886;2024-01-16T12:35:35;99951.53;;;2.19;83.63
13952;BME280;39535;52.192;9.886;2024-01-16T12:38:03;99964.28;;;2.01;83.03
13952;BME280;39535;52.192;9.886;2024-01-16T12:40:31;99945.53;;;2.19;83.23
13952;BME280;39535;52.192;9.886;2024-01-16T12:42:58;99937.88;;;2.30;82.88
13952;BME280;39535;52.192;9.886;2024-01-16T12:45:24;99939.66;;;2.40;82.57
13952;BME280;39535;52.192;9.886;2024-01-16T12:47:51;99945.66;;;2.36;82.81
13952;BME280;39535;52.192;9.886;2024-01-16T12:50:22;99951.50;;;2.15;82.93
13952;BME280;39535;52.192;9.886;2024-01-16T12:52:51;99934.47;;;2.32;83.61
13952;BME280;39535;52.192;9.886;2024-01-16T12:55:26;99929.09;;;2.02;83.33
13952;BME280;39535;52.192;9.886;2024-01-16T12:58:14;99929.09;;;1.98;84.10
13952;BME280;39535;52.192;9.886;2024-01-16T13:00:41;99912.84;;;2.09;83.72
13952;BME280;39535;52.192;9.886;2024-01-16T13:03:07;99923.22;;;2.19;82.75
13952;BME280;39535;52.192;9.886;2024-01-16T13:05:34;99927.50;;;2.19;82.56
13952;BME280;39535;52.192;9.886;2024-01-16T13:08:02;99918.06;;;2.21;83.66